createdAt,value
2023-05-11T00:00:11.213Z,13.14
2023-05-11T00:02:40.325Z,12.94
2023-05-11T00:05:11.414Z,12.89
2023-05-11T00:07:40.187Z,12.84
2023-05-11T00:10:10.608Z,12.73
2023-05-11T00:12:39.362Z,12.56
2023-05-11T00:15:09.637Z,12.43
2023-05-11T00:17:38.377Z,12.33
2023-05-11T00:20:08.974Z,12.29
2023-05-11T00:22:39.309Z,12.38
2023-05-11T00:25:09.118Z,12.38
2023-05-11T00:27:37.778Z,12.34
2023-05-11T00:30:08.422Z,12.27
2023-05-11T00:32:37.120Z,12.14
2023-05-11T00:35:06.940Z,12.06
2023-05-11T00:37:35.674Z,12.12
2023-05-11T00:40:07.069Z,12.11
2023-05-11T00:42:36.216Z,12.19
2023-05-11T00:45:06.150Z,12.32
2023-05-11T00:47:34.975Z,12.20
2023-05-11T00:50:03.928Z,12.16
2023-05-11T00:52:32.712Z,12.20
2023-05-11T00:55:01.674Z,12.27
2023-05-11T00:57:33.401Z,12.34
2023-05-11T01:00:04.412Z,12.28
2023-05-11T01:02:33.518Z,12.28
2023-05-11T01:05:02.763Z,12.11
2023-05-11T01:07:39.777Z,12.09
2023-05-11T01:10:20.926Z,12.14
2023-05-11T01:13:03.901Z,12.20
2023-05-11T01:15:42.380Z,12.23
2023-05-11T01:18:25.315Z,12.12
2023-05-11T01:20:59.738Z,12.12
2023-05-11T01:24:16.716Z,12.17
2023-05-11T01:27:08.118Z,12.05
2023-05-11T01:30:14.787Z,12.14
2023-05-11T01:32:47.520Z,11.97
2023-05-11T01:35:22.208Z,12.13
2023-05-11T01:37:55.986Z,12.14
2023-05-11T01:40:29.986Z,12.20
2023-05-11T01:43:05.495Z,12.31
2023-05-11T01:45:40.503Z,12.38
2023-05-11T01:48:18.513Z,12.43
2023-05-11T01:50:51.077Z,12.35
2023-05-11T01:53:22.768Z,12.15
2023-05-11T01:55:53.929Z,12.27
2023-05-11T01:58:25.870Z,12.18
2023-05-11T02:00:55.779Z,12.27
2023-05-11T02:03:29.678Z,12.32
2023-05-11T02:06:02.010Z,12.31
2023-05-11T02:08:33.804Z,12.17
2023-05-11T02:11:05.324Z,12.18
2023-05-11T02:13:37.613Z,12.16
2023-05-11T02:16:10.315Z,12.17
2023-05-11T02:18:43.669Z,12.04
2023-05-11T02:21:16.764Z,12.06
2023-05-11T02:23:49.800Z,12.08
2023-05-11T02:26:18.876Z,12.08
2023-05-11T02:28:47.728Z,12.04
2023-05-11T02:31:26.365Z,11.87
2023-05-11T02:34:04.518Z,11.82
2023-05-11T02:36:38.849Z,11.57
2023-05-11T02:39:13.759Z,11.54
2023-05-11T02:41:47.716Z,11.44
2023-05-11T02:44:21.328Z,11.45
2023-05-11T02:46:52.777Z,11.39
2023-05-11T02:49:26.673Z,11.52
2023-05-11T02:51:58.818Z,11.57
2023-05-11T02:54:30.268Z,11.57
2023-05-11T02:56:59.868Z,11.50
2023-05-11T02:59:29.700Z,11.39
2023-05-11T03:02:00.110Z,11.24
2023-05-11T03:04:30.718Z,11.17
2023-05-11T03:06:59.447Z,11.16
2023-05-11T03:09:28.262Z,11.28
2023-05-11T03:11:57.871Z,11.39
2023-05-11T03:14:27.896Z,11.39
2023-05-11T03:17:00.524Z,11.49
2023-05-11T03:19:32.236Z,11.53
2023-05-11T03:22:02.237Z,11.56
2023-05-11T03:24:32.589Z,11.63
2023-05-11T03:27:03.882Z,11.62
2023-05-11T03:29:38.488Z,11.63
2023-05-11T03:32:07.687Z,11.65
2023-05-11T03:34:40.976Z,11.75
2023-05-11T03:37:14.629Z,11.75
2023-05-11T03:39:49.157Z,11.77
2023-05-11T03:42:20.914Z,11.89
2023-05-11T03:44:55.956Z,11.96
2023-05-11T03:47:27.096Z,12.01
2023-05-11T03:50:00.064Z,12.01
2023-05-11T03:52:29.613Z,12.01
2023-05-11T03:54:58.661Z,12.07
2023-05-11T03:57:28.357Z,12.08
2023-05-11T03:59:57.666Z,12.16
2023-05-11T04:02:30.410Z,12.18
2023-05-11T04:05:01.705Z,12.22
2023-05-11T04:07:32.869Z,12.26
2023-05-11T04:10:01.744Z,12.27
2023-05-11T04:12:30.571Z,12.28
2023-05-11T04:14:59.406Z,12.28
2023-05-11T04:17:28.546Z,12.31
2023-05-11T04:19:57.475Z,12.35
2023-05-11T04:22:27.760Z,12.37
2023-05-11T04:24:56.644Z,12.38
2023-05-11T04:27:25.470Z,12.35
2023-05-11T04:29:54.210Z,12.38
2023-05-11T04:32:23.626Z,12.40
2023-05-11T04:34:52.733Z,12.42
2023-05-11T04:37:24.518Z,12.43
2023-05-11T04:39:55.835Z,12.51
2023-05-11T04:42:24.788Z,12.58
2023-05-11T04:44:56.680Z,12.53
2023-05-11T04:47:25.464Z,12.54
2023-05-11T04:49:54.287Z,12.64
2023-05-11T04:52:22.998Z,12.60
2023-05-11T04:54:53.110Z,12.66
2023-05-11T04:57:23.286Z,12.75
2023-05-11T04:59:52.095Z,12.80
2023-05-11T05:02:20.826Z,12.80
2023-05-11T05:04:49.547Z,12.88
2023-05-11T05:07:18.290Z,12.91
2023-05-11T05:09:47.431Z,13.01
2023-05-11T05:12:17.228Z,13.12
2023-05-11T05:14:47.493Z,13.17
2023-05-11T05:17:16.346Z,13.24
2023-05-11T05:19:45.111Z,13.30
2023-05-11T05:22:13.909Z,13.42
2023-05-11T05:24:43.190Z,13.43
2023-05-11T05:27:11.857Z,13.56
2023-05-11T05:29:40.968Z,13.55
2023-05-11T05:32:12.344Z,13.65
2023-05-11T05:34:41.377Z,13.72
2023-05-11T05:37:10.237Z,13.78
2023-05-11T05:39:38.899Z,13.84
2023-05-11T05:42:08.360Z,13.90
2023-05-11T05:44:37.502Z,13.91
2023-05-11T05:47:07.301Z,13.92
2023-05-11T05:49:39.498Z,13.91
2023-05-11T05:52:10.852Z,13.99
2023-05-11T05:54:40.664Z,14.03
2023-05-11T05:57:09.436Z,14.10
2023-05-11T05:59:38.732Z,14.18
2023-05-11T06:02:07.783Z,14.29
2023-05-11T06:04:38.166Z,14.36
2023-05-11T06:07:06.905Z,14.46
2023-05-11T06:09:39.043Z,14.55
2023-05-11T06:12:09.368Z,14.62
2023-05-11T06:14:41.901Z,14.64
2023-05-11T06:17:10.968Z,14.65
2023-05-11T06:19:41.384Z,14.68
2023-05-11T06:22:11.281Z,14.73
2023-05-11T06:24:40.284Z,14.72
2023-05-11T06:27:09.139Z,14.71
2023-05-11T06:29:38.264Z,14.78
2023-05-11T06:32:07.980Z,14.96
2023-05-11T06:34:39.385Z,15.04
2023-05-11T06:37:09.639Z,15.18
2023-05-11T06:39:38.704Z,15.16
2023-05-11T06:42:10.318Z,15.24
2023-05-11T06:44:39.829Z,15.27
2023-05-11T06:47:09.164Z,15.33
2023-05-11T06:49:37.822Z,15.43
2023-05-11T06:52:08.972Z,15.43
2023-05-11T06:54:38.207Z,15.48
2023-05-11T06:57:06.981Z,15.45
2023-05-11T06:59:35.651Z,15.43
2023-05-11T07:02:04.337Z,15.51
2023-05-11T07:04:33.076Z,15.51
2023-05-11T07:07:01.897Z,15.56
2023-05-11T07:09:32.041Z,15.59
2023-05-11T07:12:00.806Z,15.80
2023-05-11T07:14:29.604Z,15.84
2023-05-11T07:16:58.274Z,15.95
2023-05-11T07:19:27.249Z,15.99
2023-05-11T07:21:56.292Z,16.11
2023-05-11T07:24:24.989Z,16.25
2023-05-11T07:26:55.859Z,16.33
2023-05-11T07:29:24.515Z,16.39
2023-05-11T07:31:53.298Z,16.40
2023-05-11T07:34:22.044Z,16.41
2023-05-11T07:36:50.890Z,16.42
2023-05-11T07:39:19.586Z,16.45
2023-05-11T07:41:48.315Z,16.56
2023-05-11T07:44:18.996Z,16.66
2023-05-11T07:46:47.730Z,16.76
2023-05-11T07:49:22.673Z,16.82
2023-05-11T07:51:56.884Z,16.91
2023-05-11T07:54:26.260Z,16.99
2023-05-11T07:56:55.034Z,17.05
2023-05-11T07:59:28.504Z,17.14
2023-05-11T08:01:57.313Z,17.30
2023-05-11T08:04:28.134Z,17.36
2023-05-11T08:06:56.972Z,17.37
2023-05-11T08:09:25.789Z,17.49
2023-05-11T08:11:56.591Z,17.52
2023-05-11T08:14:27.068Z,17.61
2023-05-11T08:16:55.873Z,17.63
2023-05-11T08:19:24.500Z,17.65
2023-05-11T08:21:53.628Z,17.86
2023-05-11T08:24:22.339Z,17.91
2023-05-11T08:26:50.986Z,18.00
2023-05-11T08:29:19.714Z,18.11
2023-05-11T08:31:51.593Z,18.21
2023-05-11T08:34:20.543Z,18.29
2023-05-11T08:36:49.535Z,18.35
2023-05-11T08:39:32.868Z,18.44
2023-05-11T08:42:08.583Z,18.44
2023-05-11T08:44:39.844Z,18.55
2023-05-11T08:47:22.790Z,18.64
2023-05-11T08:49:53.610Z,18.64
2023-05-11T08:52:22.597Z,18.86
2023-05-11T08:54:51.361Z,18.94
2023-05-11T08:57:20.680Z,19.13
2023-05-11T08:59:52.039Z,19.21
2023-05-11T09:02:22.176Z,19.33
2023-05-11T09:04:52.989Z,19.24
2023-05-11T09:07:23.018Z,19.36
2023-05-11T09:09:51.764Z,19.37
2023-05-11T09:12:21.629Z,19.53
2023-05-11T09:14:50.534Z,19.60
2023-05-11T09:17:19.306Z,19.58
2023-05-11T09:20:05.971Z,19.75
2023-05-11T09:22:36.556Z,19.83
2023-05-11T09:25:06.811Z,19.94
2023-05-11T09:27:41.891Z,20.12
2023-05-11T09:30:21.998Z,20.28
2023-05-11T09:32:53.572Z,20.55
2023-05-11T09:35:26.512Z,20.69
2023-05-11T09:38:07.870Z,20.91
2023-05-11T09:40:39.881Z,21.06
2023-05-11T09:43:19.030Z,21.31
2023-05-11T09:45:49.882Z,21.38
2023-05-11T09:48:32.919Z,21.61
2023-05-11T09:51:06.496Z,21.40
2023-05-11T09:53:43.306Z,21.38
2023-05-11T09:56:13.931Z,21.41
2023-05-11T09:58:53.267Z,21.51
2023-05-11T10:01:32.513Z,22.00
2023-05-11T10:04:21.117Z,22.18
2023-05-11T10:06:54.928Z,22.01
2023-05-11T10:09:26.215Z,22.11
2023-05-11T10:11:56.637Z,22.27
2023-05-11T10:14:29.445Z,22.44
2023-05-11T10:17:03.051Z,22.53
2023-05-11T10:19:32.970Z,22.86
2023-05-11T10:22:06.181Z,22.88
2023-05-11T10:24:35.500Z,23.13
2023-05-11T10:27:05.080Z,23.31
2023-05-11T10:29:35.232Z,23.39
2023-05-11T10:32:05.938Z,23.49
2023-05-11T10:35:25.969Z,23.57
2023-05-11T10:38:05.940Z,23.51
2023-05-11T10:40:42.340Z,23.58
2023-05-11T10:43:47.622Z,23.27
2023-05-11T10:46:42.815Z,22.87
2023-05-11T10:49:38.627Z,22.87
2023-05-11T10:52:30.158Z,22.82
2023-05-11T10:55:14.667Z,22.46
2023-05-11T10:58:10.494Z,22.12
2023-05-11T11:01:37.866Z,21.79
2023-05-11T11:04:10.059Z,21.52
2023-05-11T11:06:41.735Z,21.62
2023-05-11T11:09:15.901Z,22.10
2023-05-11T11:11:50.289Z,22.11
2023-05-11T11:14:20.091Z,22.09
2023-05-11T11:17:27.384Z,22.31
2023-05-11T11:19:57.439Z,22.02
2023-05-11T11:22:47.618Z,21.88
2023-05-11T11:25:53.830Z,22.21
2023-05-11T11:28:24.795Z,22.75
2023-05-11T11:31:28.980Z,22.92
2023-05-11T11:34:01.101Z,22.97
2023-05-11T11:37:08.729Z,23.28
2023-05-11T11:40:09.522Z,23.35
2023-05-11T11:42:44.777Z,23.63
2023-05-11T11:45:40.028Z,23.81
2023-05-11T11:48:18.095Z,24.17
2023-05-11T11:50:49.197Z,24.33
2023-05-11T11:54:07.191Z,24.65
2023-05-11T11:56:46.990Z,24.50
2023-05-11T11:59:17.013Z,24.72
2023-05-11T12:01:54.737Z,25.07
2023-05-11T12:04:57.181Z,25.39
2023-05-11T12:07:28.625Z,25.65
2023-05-11T12:09:57.850Z,25.82
2023-05-11T12:12:28.384Z,25.58
2023-05-11T12:14:57.928Z,25.54
2023-05-11T12:17:30.956Z,25.74
2023-05-11T12:20:15.121Z,25.26
2023-05-11T12:22:44.776Z,24.67
2023-05-11T12:25:15.988Z,24.36
2023-05-11T12:27:55.437Z,24.66
2023-05-11T12:30:26.580Z,24.82
2023-05-11T12:32:57.882Z,25.07
2023-05-11T12:35:29.459Z,25.24
2023-05-11T12:38:00.960Z,25.29
2023-05-11T12:40:30.050Z,24.90
2023-05-11T12:43:01.685Z,24.57
2023-05-11T12:45:30.928Z,24.30
2023-05-11T12:48:02.133Z,24.06
2023-05-11T12:50:31.283Z,23.73
2023-05-11T12:53:15.866Z,23.53
2023-05-11T12:55:45.619Z,23.34
2023-05-11T12:58:18.652Z,23.32
2023-05-11T13:00:55.196Z,23.29
2023-05-11T13:03:27.526Z,22.83
2023-05-11T13:06:08.087Z,22.56
2023-05-11T13:08:38.885Z,22.09
2023-05-11T13:11:22.503Z,21.91
2023-05-11T13:13:51.911Z,22.01
2023-05-11T13:16:30.502Z,21.99
2023-05-11T13:19:08.313Z,21.92
2023-05-11T13:21:38.520Z,21.90
2023-05-11T13:24:09.470Z,21.83
2023-05-11T13:26:38.376Z,21.87
2023-05-11T13:29:11.173Z,21.79
2023-05-11T13:31:47.165Z,21.89
2023-05-11T13:34:18.636Z,21.93
2023-05-11T13:36:47.991Z,22.06
2023-05-11T13:39:16.856Z,21.94
2023-05-11T13:41:46.238Z,21.90
2023-05-11T13:44:14.963Z,21.87
2023-05-11T13:46:43.604Z,22.04
2023-05-11T13:49:12.465Z,22.01
2023-05-11T13:51:42.833Z,22.05
2023-05-11T13:54:13.551Z,22.01
2023-05-11T13:56:42.331Z,22.03
2023-05-11T13:59:11.211Z,22.01
2023-05-11T14:01:39.970Z,21.88
2023-05-11T14:04:08.665Z,22.01
2023-05-11T14:06:38.170Z,22.14
2023-05-11T14:09:08.344Z,22.29
2023-05-11T14:11:39.313Z,22.31
2023-05-11T14:14:08.548Z,22.30
2023-05-11T14:16:37.946Z,22.15
2023-05-11T14:19:06.779Z,22.26
2023-05-11T14:21:35.827Z,22.38
2023-05-11T14:24:14.067Z,22.47
2023-05-11T14:26:44.380Z,22.67
2023-05-11T14:29:13.090Z,22.60
2023-05-11T14:31:42.789Z,22.79
2023-05-11T14:34:12.491Z,22.89
2023-05-11T14:36:42.073Z,22.87
2023-05-11T14:39:11.735Z,23.00
2023-05-11T14:41:41.344Z,23.61
2023-05-11T14:44:12.924Z,23.86
2023-05-11T14:46:41.876Z,23.53
2023-05-11T14:49:10.829Z,23.20
2023-05-11T14:51:40.044Z,22.82
2023-05-11T14:54:08.824Z,22.75
2023-05-11T14:56:37.449Z,22.71
2023-05-11T14:59:06.288Z,22.72
2023-05-11T15:01:36.413Z,22.86
2023-05-11T15:04:05.376Z,23.11
2023-05-11T15:06:34.229Z,23.18
2023-05-11T15:09:03.118Z,23.07
2023-05-11T15:11:31.807Z,22.87
2023-05-11T15:14:01.103Z,22.66
2023-05-11T15:16:29.961Z,22.53
2023-05-11T15:19:00.654Z,22.39
2023-05-11T15:21:29.660Z,22.43
2023-05-11T15:23:58.365Z,22.44
2023-05-11T15:26:27.387Z,22.41
2023-05-11T15:28:56.167Z,22.63
2023-05-11T15:31:24.895Z,23.08
2023-05-11T15:33:53.781Z,23.16
2023-05-11T15:36:23.975Z,22.93
2023-05-11T15:38:52.894Z,22.72
2023-05-11T15:41:22.159Z,22.67
2023-05-11T15:43:50.846Z,22.61
2023-05-11T15:46:19.631Z,22.45
2023-05-11T15:48:48.502Z,22.60
2023-05-11T15:51:17.319Z,22.71
2023-05-11T15:53:47.415Z,22.67
2023-05-11T15:56:16.060Z,22.37
2023-05-11T15:58:44.730Z,22.26
2023-05-11T16:01:13.459Z,22.00
2023-05-11T16:03:42.346Z,21.87
2023-05-11T16:06:11.342Z,21.79
2023-05-11T16:08:40.249Z,21.80
2023-05-11T16:11:10.357Z,21.83
2023-05-11T16:13:39.663Z,21.71
2023-05-11T16:16:09.104Z,21.66
2023-05-11T16:18:39.235Z,21.63
2023-05-11T16:21:08.474Z,21.49
2023-05-11T16:23:37.393Z,21.38
2023-05-11T16:26:06.220Z,21.29
2023-05-11T16:28:36.856Z,21.19
2023-05-11T16:31:05.863Z,21.10
2023-05-11T16:33:34.963Z,21.09
2023-05-11T16:36:04.087Z,21.03
2023-05-11T16:38:33.150Z,21.04
2023-05-11T16:41:02.314Z,21.09
2023-05-11T16:43:32.492Z,21.00
2023-05-11T16:46:03.684Z,20.96
2023-05-11T16:48:33.027Z,20.98
2023-05-11T16:51:05.609Z,20.98
2023-05-11T16:53:34.512Z,21.04
2023-05-11T16:56:07.680Z,20.99
2023-05-11T16:58:40.843Z,20.94
2023-05-11T17:01:12.973Z,21.01
2023-05-11T17:03:44.269Z,21.05
2023-05-11T17:06:14.741Z,21.01
2023-05-11T17:08:43.485Z,21.00
2023-05-11T17:11:12.578Z,20.93
2023-05-11T17:13:41.348Z,20.89
2023-05-11T17:16:11.681Z,20.91
2023-05-11T17:18:41.484Z,20.80
2023-05-11T17:21:11.158Z,20.75
2023-05-11T17:23:41.026Z,20.59
2023-05-11T17:26:11.527Z,20.58
2023-05-11T17:28:40.708Z,20.56
2023-05-11T17:31:13.249Z,20.49
2023-05-11T17:33:43.446Z,20.45
2023-05-11T17:36:12.960Z,20.39
2023-05-11T17:38:42.781Z,20.39
2023-05-11T17:41:11.531Z,20.39
2023-05-11T17:43:41.377Z,20.28
2023-05-11T17:46:13.640Z,20.23
2023-05-11T17:48:42.781Z,20.21
2023-05-11T17:51:12.545Z,20.14
2023-05-11T17:53:42.009Z,20.05
2023-05-11T17:56:11.952Z,20.06
2023-05-11T17:58:43.149Z,20.10
2023-05-11T18:01:14.637Z,20.10
2023-05-11T18:03:43.878Z,20.10
2023-05-11T18:06:13.085Z,20.04
2023-05-11T18:08:41.925Z,19.97
2023-05-11T18:11:11.309Z,19.95
2023-05-11T18:13:40.288Z,19.80
2023-05-11T18:16:10.187Z,19.81
2023-05-11T18:18:42.378Z,19.67
2023-05-11T18:21:11.735Z,19.65
2023-05-11T18:23:40.468Z,19.61
2023-05-11T18:26:09.233Z,19.53
2023-05-11T18:28:38.179Z,19.39
2023-05-11T18:31:06.879Z,19.40
2023-05-11T18:33:35.526Z,19.39
2023-05-11T18:36:06.666Z,19.22
2023-05-11T18:38:35.581Z,19.24
2023-05-11T18:41:06.374Z,18.96
2023-05-11T18:43:35.298Z,19.02
2023-05-11T18:46:09.297Z,18.87
2023-05-11T18:48:39.092Z,18.78
2023-05-11T18:51:09.341Z,18.69
2023-05-11T18:53:38.103Z,18.68
2023-05-11T18:56:07.115Z,18.64
2023-05-11T18:58:36.124Z,18.58
2023-05-11T19:01:05.450Z,18.42
2023-05-11T19:03:34.548Z,18.49
2023-05-11T19:06:03.541Z,18.51
2023-05-11T19:08:33.513Z,18.46
2023-05-11T19:11:08.051Z,18.38
2023-05-11T19:13:38.437Z,18.35
2023-05-11T19:16:07.678Z,18.18
2023-05-11T19:18:37.183Z,18.21
2023-05-11T19:21:06.046Z,17.99
2023-05-11T19:23:36.341Z,18.03
2023-05-11T19:26:05.156Z,18.03
2023-05-11T19:28:34.055Z,17.94
2023-05-11T19:31:17.119Z,17.85
2023-05-11T19:33:45.932Z,17.64
2023-05-11T19:36:14.741Z,17.55
2023-05-11T19:38:44.840Z,17.74
2023-05-11T19:41:13.596Z,17.73
2023-05-11T19:43:42.371Z,17.61
2023-05-11T19:46:11.202Z,17.47
2023-05-11T19:48:40.153Z,17.52
2023-05-11T19:51:08.878Z,17.54
2023-05-11T19:53:37.718Z,17.51
2023-05-11T19:56:08.684Z,17.34
2023-05-11T19:58:37.407Z,17.47
2023-05-11T20:01:06.467Z,17.46
2023-05-11T20:03:35.397Z,17.48
2023-05-11T20:06:04.304Z,17.28
2023-05-11T20:08:33.045Z,17.31
2023-05-11T20:11:02.372Z,17.28
2023-05-11T20:13:32.607Z,17.26
2023-05-11T20:16:01.525Z,17.11
2023-05-11T20:18:30.637Z,17.11
2023-05-11T20:20:59.389Z,16.86
2023-05-11T20:23:28.492Z,16.81
2023-05-11T20:25:57.245Z,16.88
2023-05-11T20:28:27.353Z,16.88
2023-05-11T20:30:58.046Z,16.78
2023-05-11T20:35:59.088Z,16.73
2023-05-11T20:38:27.864Z,16.75
2023-05-11T20:40:59.009Z,16.78
2023-05-11T20:43:28.008Z,16.66
2023-05-11T20:46:03.661Z,16.69
2023-05-11T20:48:40.567Z,16.73
2023-05-11T20:51:10.203Z,16.67
2023-05-11T20:53:39.118Z,16.57
2023-05-11T20:56:10.150Z,16.50
2023-05-11T20:58:39.280Z,16.48
2023-05-11T21:01:09.628Z,16.46
2023-05-11T21:03:38.427Z,16.30
2023-05-11T21:06:08.779Z,16.09
2023-05-11T21:08:57.400Z,15.99
2023-05-11T21:11:26.248Z,16.14
2023-05-11T21:14:08.229Z,16.10
2023-05-11T21:16:38.571Z,15.98
2023-05-11T21:19:08.177Z,15.80
2023-05-11T21:21:36.950Z,15.98
2023-05-11T21:24:06.308Z,15.82
2023-05-11T21:26:35.152Z,15.89
2023-05-11T21:29:03.913Z,15.98
2023-05-11T21:31:32.745Z,15.89
2023-05-11T21:34:02.960Z,15.87
2023-05-11T21:36:31.720Z,15.88
2023-05-11T21:39:00.418Z,15.91
2023-05-11T21:41:29.294Z,15.75
2023-05-11T21:43:58.052Z,15.80
2023-05-11T21:46:26.961Z,15.76
2023-05-11T21:48:55.736Z,15.84
2023-05-11T21:51:25.901Z,15.85
2023-05-11T21:53:54.671Z,15.92
2023-05-11T21:56:23.470Z,15.87
2023-05-11T21:58:54.230Z,15.80
2023-05-11T22:01:23.024Z,15.62
2023-05-11T22:03:51.859Z,15.66
2023-05-11T22:06:20.530Z,15.73
2023-05-11T22:08:50.772Z,15.80
2023-05-11T22:11:21.649Z,15.80
2023-05-11T22:13:51.171Z,15.69
2023-05-11T22:16:20.272Z,15.45
2023-05-11T22:18:49.089Z,15.63
2023-05-11T22:21:17.806Z,15.67
2023-05-11T22:23:46.550Z,15.43
2023-05-11T22:26:16.730Z,15.31
2023-05-11T22:28:45.582Z,15.28
2023-05-11T22:31:14.290Z,15.37
2023-05-11T22:33:43.038Z,15.31
2023-05-11T22:36:13.150Z,15.33
2023-05-11T22:38:42.071Z,15.12
2023-05-11T22:41:10.900Z,15.00
2023-05-11T22:43:41.038Z,15.02
2023-05-11T22:46:10.271Z,15.08
2023-05-11T22:48:39.053Z,15.03
2023-05-11T22:51:07.776Z,15.20
2023-05-11T22:53:36.510Z,15.19
2023-05-11T22:56:06.426Z,15.12
2023-05-11T22:58:35.399Z,15.11
2023-05-11T23:01:05.831Z,15.20
2023-05-11T23:03:34.690Z,15.23
2023-05-11T23:06:03.384Z,15.23
2023-05-11T23:08:32.376Z,15.12
2023-05-11T23:11:01.204Z,15.12
2023-05-11T23:13:29.984Z,15.04
2023-05-11T23:15:59.769Z,14.91
2023-05-11T23:18:30.054Z,14.71
2023-05-11T23:20:59.335Z,14.74
2023-05-11T23:23:28.844Z,14.91
2023-05-11T23:25:57.531Z,14.84
2023-05-11T23:28:26.360Z,14.67
2023-05-11T23:30:55.072Z,14.67
2023-05-11T23:33:23.885Z,14.70
2023-05-11T23:35:54.845Z,14.80
2023-05-11T23:38:23.585Z,14.85
2023-05-11T23:40:52.526Z,14.91
2023-05-11T23:43:22.125Z,14.83
2023-05-11T23:45:52.230Z,14.63
2023-05-11T23:48:23.089Z,14.57
2023-05-11T23:50:53.297Z,14.64
2023-05-11T23:53:22.014Z,14.70
2023-05-11T23:55:50.918Z,14.72
2023-05-11T23:58:19.642Z,14.79
